Time,TemperatureF,DewpointF,PressureIn,WindDirection,WindDirectionDegrees,WindSpeedMPH,WindSpeedGustMPH,Humidity,HourlyPrecipIn,Conditions,Clouds,dailyrainin,SolarRadiationWatts/m^2,SoftwareType,DateUTC
2013-10-10 00:11:00,38.0,38.0,-100.00,SW,218,0.0,4.0,100,0.00,,,0.33,0.000000,,2013-10-10 07:11:00,
2013-10-10 00:21:00,38.0,38.0,-100.00,SW,218,0.0,4.0,100,0.00,,,0.33,0.000000,,2013-10-10 07:21:00,
2013-10-10 00:32:00,38.0,38.0,-100.00,SW,218,0.0,4.0,100,0.00,,,0.33,0.000000,,2013-10-10 07:32:00,
2013-10-10 00:42:00,38.0,38.0,-100.00,SW,218,0.0,4.0,100,0.00,,,0.33,0.000000,,2013-10-10 07:42:00,
2013-10-10 01:11:00,36.0,36.0,-100.00,SSE,162,0.0,4.0,100,0.00,,,0.33,0.000000,,2013-10-10 08:11:00,
2013-10-10 01:22:00,36.0,36.0,-100.00,SSE,162,0.0,4.0,100,0.00,,,0.33,0.000000,,2013-10-10 08:22:00,
2013-10-10 01:32:00,36.0,36.0,-100.00,SSE,162,0.0,4.0,100,0.00,,,0.33,0.000000,,2013-10-10 08:32:00,
2013-10-10 01:42:00,36.0,36.0,-100.00,SSE,162,0.0,4.0,100,0.00,,,0.33,0.000000,,2013-10-10 08:42:00,
2013-10-10 02:11:00,34.0,34.0,-100.00,SE,137,0.0,5.0,100,0.00,,,0.33,0.000000,,2013-10-10 09:11:00,
2013-10-10 02:21:00,34.0,34.0,-100.00,SE,137,0.0,5.0,100,0.00,,,0.33,0.000000,,2013-10-10 09:21:00,
2013-10-10 02:33:00,34.0,34.0,-100.00,SE,137,0.0,5.0,100,0.00,,,0.33,0.000000,,2013-10-10 09:33:00,
2013-10-10 02:42:00,34.0,34.0,-100.00,SE,137,0.0,5.0,100,0.00,,,0.33,0.000000,,2013-10-10 09:42:00,
2013-10-10 03:12:00,33.0,33.0,-100.00,SSE,159,0.0,5.0,100,0.00,,,0.33,0.000000,,2013-10-10 10:12:00,
2013-10-10 03:23:00,33.0,33.0,-100.00,SSE,159,0.0,5.0,100,0.00,,,0.33,0.000000,,2013-10-10 10:23:00,
2013-10-10 03:32:00,33.0,33.0,-100.00,SSE,159,0.0,5.0,100,0.00,,,0.33,0.000000,,2013-10-10 10:32:00,
2013-10-10 03:42:00,33.0,33.0,-100.00,SSE,159,0.0,5.0,100,0.00,,,0.33,0.000000,,2013-10-10 10:42:00,
2013-10-10 04:12:00,32.0,32.0,-100.00,WSW,254,0.0,4.0,100,0.00,,,0.33,0.000000,,2013-10-10 11:12:00,
2013-10-10 04:22:00,32.0,32.0,-100.00,WSW,254,0.0,4.0,100,0.00,,,0.33,0.000000,,2013-10-10 11:22:00,
2013-10-10 04:33:00,32.0,32.0,-100.00,WSW,254,0.0,4.0,100,0.00,,,0.33,0.000000,,2013-10-10 11:33:00,
2013-10-10 04:42:00,32.0,32.0,-100.00,WSW,254,0.0,4.0,100,0.00,,,0.33,0.000000,,2013-10-10 11:42:00,
2013-10-10 07:11:00,31.0,31.0,-100.00,SSW,198,0.0,4.0,100,-99.99,,,0.33,0.000000,,2013-10-10 14:11:00,
2013-10-10 07:21:00,31.0,31.0,-100.00,SSW,198,0.0,4.0,100,-99.99,,,0.33,0.000000,,2013-10-10 14:21:00,
2013-10-10 07:32:00,31.0,31.0,-100.00,SSW,198,0.0,4.0,100,-99.99,,,0.33,0.000000,,2013-10-10 14:32:00,
2013-10-10 07:42:00,31.0,31.0,-100.00,SSW,198,0.0,4.0,100,-99.99,,,0.33,0.000000,,2013-10-10 14:42:00,
2013-10-10 08:11:00,31.0,31.0,-100.00,SE,140,0.0,3.0,100,0.00,,,0.33,12.000000,,2013-10-10 15:11:00,
2013-10-10 08:22:00,31.0,31.0,-100.00,SE,140,0.0,3.0,100,0.00,,,0.33,12.000000,,2013-10-10 15:22:00,
2013-10-10 08:33:00,31.0,31.0,-100.00,SE,140,0.0,3.0,100,0.00,,,0.33,12.000000,,2013-10-10 15:33:00,
2013-10-10 08:43:00,31.0,31.0,-100.00,SE,140,0.0,3.0,100,0.00,,,0.33,12.000000,,2013-10-10 15:43:00,
2013-10-10 09:13:00,34.0,34.0,-100.00,SW,235,0.0,4.0,100,0.00,,,0.27,117.000000,,2013-10-10 16:13:00,
2013-10-10 09:23:00,34.0,34.0,-100.00,SW,235,0.0,4.0,100,0.00,,,0.27,117.000000,,2013-10-10 16:23:00,
2013-10-10 09:33:00,34.0,34.0,-100.00,SW,235,0.0,4.0,100,0.00,,,0.27,117.000000,,2013-10-10 16:33:00,
2013-10-10 09:42:00,34.0,34.0,-100.00,SW,235,0.0,4.0,100,0.00,,,0.27,117.000000,,2013-10-10 16:42:00,
2013-10-10 10:23:00,44.0,37.0,-100.00,WSW,249,0.0,6.0,76,0.00,,,0.25,271.000000,,2013-10-10 17:23:00,
2013-10-10 10:32:00,44.0,37.0,-100.00,WSW,249,0.0,6.0,76,0.00,,,0.25,271.000000,,2013-10-10 17:32:00,
2013-10-10 10:42:00,44.0,37.0,-100.00,WSW,249,0.0,6.0,76,0.00,,,0.25,271.000000,,2013-10-10 17:42:00,
2013-10-10 11:12:00,51.0,39.0,-100.00,WSW,255,0.0,4.0,63,0.00,,,0.20,424.000000,,2013-10-10 18:12:00,
2013-10-10 11:21:00,51.0,39.0,-100.00,WSW,255,0.0,4.0,63,0.00,,,0.20,424.000000,,2013-10-10 18:21:00,
2013-10-10 11:32:00,51.0,39.0,-100.00,WSW,255,0.0,4.0,63,0.00,,,0.20,424.000000,,2013-10-10 18:32:00,
2013-10-10 11:42:00,51.0,39.0,-100.00,WSW,255,0.0,4.0,63,0.00,,,0.20,424.000000,,2013-10-10 18:42:00,
2013-10-10 12:11:00,56.0,32.0,-100.00,ESE,104,2.0,9.0,40,0.00,,,0.18,640.000000,,2013-10-10 19:11:00,
2013-10-10 12:21:00,56.0,32.0,-100.00,ESE,104,2.0,9.0,40,0.00,,,0.18,640.000000,,2013-10-10 19:21:00,
2013-10-10 12:32:00,56.0,32.0,-100.00,ESE,104,2.0,9.0,40,0.00,,,0.18,640.000000,,2013-10-10 19:32:00,
2013-10-10 12:42:00,56.0,32.0,-100.00,ESE,104,2.0,9.0,40,0.00,,,0.18,640.000000,,2013-10-10 19:42:00,
2013-10-10 13:12:00,60.0,31.0,-100.00,SE,127,2.0,8.0,33,0.00,,,0.10,786.000000,,2013-10-10 20:12:00,
2013-10-10 13:22:00,60.0,31.0,-100.00,SE,127,2.0,8.0,33,0.00,,,0.10,786.000000,,2013-10-10 20:22:00,
2013-10-10 13:32:00,60.0,31.0,-100.00,SE,127,2.0,8.0,33,0.00,,,0.10,786.000000,,2013-10-10 20:32:00,
2013-10-10 13:42:00,60.0,31.0,-100.00,SE,127,2.0,8.0,33,0.00,,,0.10,786.000000,,2013-10-10 20:42:00,
2013-10-10 14:21:00,60.0,30.0,-100.00,North,350,5.0,15.0,32,0.00,,,0.03,682.000000,,2013-10-10 21:21:00,
2013-10-10 14:34:00,60.0,30.0,-100.00,North,350,5.0,15.0,32,0.00,,,0.03,682.000000,,2013-10-10 21:34:00,
2013-10-10 14:43:00,60.0,30.0,-100.00,North,350,5.0,15.0,32,0.00,,,0.03,682.000000,,2013-10-10 21:43:00,
2013-10-10 15:13:00,61.0,27.0,-100.00,WSW,257,8.0,18.0,27,0.00,,,0.00,750.000000,,2013-10-10 22:13:00,
2013-10-10 15:24:00,61.0,27.0,-100.00,WSW,257,8.0,18.0,27,0.00,,,0.00,750.000000,,2013-10-10 22:24:00,
2013-10-10 15:33:00,61.0,27.0,-100.00,WSW,257,8.0,18.0,27,0.00,,,0.00,750.000000,,2013-10-10 22:33:00,
2013-10-10 15:43:00,61.0,27.0,-100.00,WSW,257,8.0,18.0,27,0.00,,,0.00,750.000000,,2013-10-10 22:43:00,
2013-10-10 16:12:00,59.0,24.0,-100.00,WSW,245,9.0,21.0,26,0.00,,,0.00,752.000000,,2013-10-10 23:12:00,
2013-10-10 16:23:00,59.0,24.0,-100.00,WSW,245,9.0,21.0,26,0.00,,,0.00,752.000000,,2013-10-10 23:23:00,
2013-10-10 16:33:00,59.0,24.0,-100.00,WSW,245,9.0,21.0,26,0.00,,,0.00,752.000000,,2013-10-10 23:33:00,
2013-10-10 16:43:00,59.0,24.0,-100.00,WSW,245,9.0,21.0,26,0.00,,,0.00,752.000000,,2013-10-10 23:43:00,
2013-10-10 17:11:00,59.0,26.0,-100.00,West,267,8.0,18.0,28,0.00,,,0.00,472.000000,,2013-10-11 00:11:00,
2013-10-10 17:21:00,59.0,26.0,-100.00,West,267,8.0,18.0,28,0.00,,,0.00,472.000000,,2013-10-11 00:21:00,
2013-10-10 17:32:00,59.0,26.0,-100.00,West,267,8.0,18.0,28,0.00,,,0.00,472.000000,,2013-10-11 00:32:00,
2013-10-10 17:42:00,59.0,26.0,-100.00,West,267,8.0,18.0,28,0.00,,,0.00,472.000000,,2013-10-11 00:42:00,
2013-10-10 18:11:00,56.0,25.0,-100.00,SW,224,3.0,14.0,30,0.00,,,0.00,238.000000,,2013-10-11 01:11:00,
2013-10-10 18:21:00,56.0,25.0,-100.00,SW,224,3.0,14.0,30,0.00,,,0.00,238.000000,,2013-10-11 01:21:00,
2013-10-10 18:32:00,56.0,25.0,-100.00,SW,224,3.0,14.0,30,0.00,,,0.00,238.000000,,2013-10-11 01:32:00,
2013-10-10 18:42:00,56.0,25.0,-100.00,SW,224,3.0,14.0,30,0.00,,,0.00,238.000000,,2013-10-11 01:42:00,
2013-10-10 19:12:00,49.0,29.0,-100.00,SW,218,6.0,13.0,46,0.00,,,0.00,20.000000,,2013-10-11 02:12:00,
2013-10-10 19:22:00,49.0,29.0,-100.00,SW,218,6.0,13.0,46,0.00,,,0.00,20.000000,,2013-10-11 02:22:00,
2013-10-10 19:32:00,49.0,29.0,-100.00,SW,218,6.0,13.0,46,0.00,,,0.00,20.000000,,2013-10-11 02:32:00,
2013-10-10 19:42:00,49.0,29.0,-100.00,SW,218,6.0,13.0,46,0.00,,,0.00,20.000000,,2013-10-11 02:42:00,
2013-10-10 20:11:00,48.0,32.0,-100.00,SSW,200,3.0,12.0,53,0.00,,,0.00,0.000000,,2013-10-11 03:11:00,
2013-10-10 20:23:00,48.0,32.0,-100.00,SSW,200,3.0,12.0,53,0.00,,,0.00,0.000000,,2013-10-11 03:23:00,
2013-10-10 20:34:00,48.0,32.0,-100.00,SSW,200,3.0,12.0,53,0.00,,,0.00,0.000000,,2013-10-11 03:34:00,
2013-10-10 20:44:00,48.0,32.0,-100.00,SSW,200,3.0,12.0,53,0.00,,,0.00,0.000000,,2013-10-11 03:44:00,
2013-10-10 21:13:00,46.0,32.0,-100.00,South,183,4.0,11.0,59,0.00,,,0.00,0.000000,,2013-10-11 04:13:00,
2013-10-10 21:24:00,46.0,32.0,-100.00,South,183,4.0,11.0,59,0.00,,,0.00,0.000000,,2013-10-11 04:24:00,
2013-10-10 21:34:00,46.0,32.0,-100.00,South,183,4.0,11.0,59,0.00,,,0.00,0.000000,,2013-10-11 04:34:00,
2013-10-10 21:43:00,46.0,32.0,-100.00,South,183,4.0,11.0,59,0.00,,,0.00,0.000000,,2013-10-11 04:43:00,
2013-10-10 22:13:00,41.0,31.0,-100.00,SE,124,3.0,8.0,66,0.00,,,0.00,0.000000,,2013-10-11 05:13:00,
2013-10-10 22:23:00,41.0,31.0,-100.00,SE,124,3.0,8.0,66,0.00,,,0.00,0.000000,,2013-10-11 05:23:00,
2013-10-10 22:34:00,41.0,31.0,-100.00,SE,124,3.0,8.0,66,0.00,,,0.00,0.000000,,2013-10-11 05:34:00,
2013-10-10 22:43:00,41.0,31.0,-100.00,SE,124,3.0,8.0,66,0.00,,,0.00,0.000000,,2013-10-11 05:43:00,
2013-10-10 23:12:00,39.0,30.0,-100.00,SE,137,2.0,6.0,69,0.00,,,0.00,0.000000,,2013-10-11 06:12:00,
2013-10-10 23:22:00,39.0,30.0,-100.00,SE,137,2.0,6.0,69,0.00,,,0.00,0.000000,,2013-10-11 06:22:00,
2013-10-10 23:32:00,39.0,30.0,-100.00,SE,137,2.0,6.0,69,0.00,,,0.00,0.000000,,2013-10-11 06:32:00,
2013-10-10 23:42:00,39.0,30.0,-100.00,SE,137,2.0,6.0,69,0.00,,,0.00,0.000000,,2013-10-11 06:42:00,